sensor_id;sensor_type;location;lat;lon;timestamp;P1;durP1;ratioP1;P2;durP2;ratioP2
31386;SDS011;18017;50.124;8.688;2022-12-24T00:01:20;10.98;;;1.05;;
31386;SDS011;18017;50.124;8.688;2022-12-24T00:03:45;10.05;;;1.13;;
31386;SDS011;18017;50.124;8.688;2022-12-24T00:06:16;9.00;;;1.45;;
31386;SDS011;18017;50.124;8.688;2022-12-24T00:08:45;11.52;;;0.85;;
31386;SDS011;18017;50.124;8.688;2022-12-24T00:11:10;8.32;;;1.23;;
31386;SDS011;18017;50.124;8.688;2022-12-24T00:13:36;11.57;;;1.20;;
31386;SDS011;18017;50.124;8.688;2022-12-24T00:16:01;9.43;;;1.00;;
31386;SDS011;18017;50.124;8.688;2022-12-24T00:18:27;9.05;;;0.68;;
31386;SDS011;18017;50.124;8.688;2022-12-24T00:20:53;10.40;;;1.02;;
31386;SDS011;18017;50.124;8.688;2022-12-24T00:23:19;8.98;;;0.88;;
31386;SDS011;18017;50.124;8.688;2022-12-24T00:25:45;6.57;;;0.95;;
31386;SDS011;18017;50.124;8.688;2022-12-24T00:28:11;13.65;;;1.15;;
31386;SDS011;18017;50.124;8.688;2022-12-24T00:30:38;11.07;;;0.88;;
31386;SDS011;18017;50.124;8.688;2022-12-24T00:33:05;12.02;;;1.15;;
31386;SDS011;18017;50.124;8.688;2022-12-24T00:35:34;15.45;;;1.10;;
31386;SDS011;18017;50.124;8.688;2022-12-24T00:38:03;11.85;;;1.00;;
31386;SDS011;18017;50.124;8.688;2022-12-24T00:40:29;7.35;;;1.02;;
31386;SDS011;18017;50.124;8.688;2022-12-24T00:42:56;10.85;;;1.63;;
31386;SDS011;18017;50.124;8.688;2022-12-24T00:45:21;9.25;;;1.10;;
31386;SDS011;18017;50.124;8.688;2022-12-24T00:47:47;6.78;;;0.85;;
31386;SDS011;18017;50.124;8.688;2022-12-24T00:50:13;12.02;;;1.17;;
31386;SDS011;18017;50.124;8.688;2022-12-24T00:52:39;10.40;;;1.33;;
31386;SDS011;18017;50.124;8.688;2022-12-24T00:55:05;5.72;;;0.80;;
31386;SDS011;18017;50.124;8.688;2022-12-24T00:57:32;6.85;;;0.80;;
31386;SDS011;18017;50.124;8.688;2022-12-24T00:59:57;10.45;;;1.58;;
31386;SDS011;18017;50.124;8.688;2022-12-24T01:02:23;12.18;;;1.10;;
31386;SDS011;18017;50.124;8.688;2022-12-24T01:04:49;7.88;;;1.00;;
31386;SDS011;18017;50.124;8.688;2022-12-24T01:07:33;9.50;;;0.98;;
31386;SDS011;18017;50.124;8.688;2022-12-24T01:09:58;10.30;;;1.13;;
31386;SDS011;18017;50.124;8.688;2022-12-24T01:12:24;6.13;;;0.80;;
31386;SDS011;18017;50.124;8.688;2022-12-24T01:14:50;10.57;;;1.27;;
31386;SDS011;18017;50.124;8.688;2022-12-24T01:17:16;12.13;;;1.20;;
31386;SDS011;18017;50.124;8.688;2022-12-24T01:19:41;8.32;;;0.93;;
31386;SDS011;18017;50.124;8.688;2022-12-24T01:22:07;6.75;;;0.88;;
31386;SDS011;18017;50.124;8.688;2022-12-24T01:24:33;6.95;;;0.95;;
31386;SDS011;18017;50.124;8.688;2022-12-24T01:26:58;14.63;;;1.10;;
31386;SDS011;18017;50.124;8.688;2022-12-24T01:29:24;9.07;;;0.90;;
31386;SDS011;18017;50.124;8.688;2022-12-24T01:31:49;10.40;;;1.13;;
31386;SDS011;18017;50.124;8.688;2022-12-24T01:34:15;15.55;;;1.58;;
31386;SDS011;18017;50.124;8.688;2022-12-24T01:36:41;11.18;;;1.00;;
31386;SDS011;18017;50.124;8.688;2022-12-24T01:39:06;9.82;;;1.00;;
31386;SDS011;18017;50.124;8.688;2022-12-24T01:41:32;7.55;;;0.90;;
31386;SDS011;18017;50.124;8.688;2022-12-24T01:44:20;8.60;;;0.88;;
31386;SDS011;18017;50.124;8.688;2022-12-24T01:46:55;7.13;;;0.95;;
31386;SDS011;18017;50.124;8.688;2022-12-24T01:49:25;10.07;;;1.00;;
31386;SDS011;18017;50.124;8.688;2022-12-24T01:51:52;10.00;;;0.85;;
31386;SDS011;18017;50.124;8.688;2022-12-24T01:54:32;11.80;;;1.30;;
31386;SDS011;18017;50.124;8.688;2022-12-24T01:57:12;7.97;;;1.27;;
31386;SDS011;18017;50.124;8.688;2022-12-24T01:59:43;7.88;;;0.93;;
31386;SDS011;18017;50.124;8.688;2022-12-24T02:02:13;13.88;;;1.00;;
31386;SDS011;18017;50.124;8.688;2022-12-24T02:04:46;10.38;;;0.98;;
31386;SDS011;18017;50.124;8.688;2022-12-24T02:07:33;8.77;;;0.70;;
31386;SDS011;18017;50.124;8.688;2022-12-24T02:09:59;9.82;;;1.13;;
31386;SDS011;18017;50.124;8.688;2022-12-24T02:12:26;10.43;;;0.82;;
31386;SDS011;18017;50.124;8.688;2022-12-24T02:14:53;11.98;;;1.17;;
31386;SDS011;18017;50.124;8.688;2022-12-24T02:17:23;7.15;;;0.73;;
31386;SDS011;18017;50.124;8.688;2022-12-24T02:31:31;14.40;;;1.05;;
31386;SDS011;18017;50.124;8.688;2022-12-24T02:34:06;12.80;;;1.17;;
31386;SDS011;18017;50.124;8.688;2022-12-24T02:36:43;10.95;;;1.10;;
31386;SDS011;18017;50.124;8.688;2022-12-24T02:39:21;11.80;;;1.00;;
31386;SDS011;18017;50.124;8.688;2022-12-24T02:41:52;10.48;;;1.25;;
31386;SDS011;18017;50.124;8.688;2022-12-24T02:44:30;12.93;;;1.23;;
31386;SDS011;18017;50.124;8.688;2022-12-24T02:47:17;6.28;;;0.95;;
31386;SDS011;18017;50.124;8.688;2022-12-24T02:49:46;13.55;;;1.17;;
31386;SDS011;18017;50.124;8.688;2022-12-24T02:52:35;13.35;;;1.08;;
31386;SDS011;18017;50.124;8.688;2022-12-24T03:09:27;9.55;;;0.80;;
31386;SDS011;18017;50.124;8.688;2022-12-24T03:12:00;14.70;;;1.30;;
31386;SDS011;18017;50.124;8.688;2022-12-24T03:14:34;15.27;;;1.02;;
31386;SDS011;18017;50.124;8.688;2022-12-24T03:17:01;15.90;;;1.88;;
31386;SDS011;18017;50.124;8.688;2022-12-24T03:19:28;10.57;;;0.98;;
31386;SDS011;18017;50.124;8.688;2022-12-24T03:21:55;9.85;;;1.33;;
31386;SDS011;18017;50.124;8.688;2022-12-24T03:24:23;16.58;;;1.45;;
31386;SDS011;18017;50.124;8.688;2022-12-24T03:26:49;10.70;;;1.20;;
31386;SDS011;18017;50.124;8.688;2022-12-24T03:29:16;14.93;;;1.10;;
31386;SDS011;18017;50.124;8.688;2022-12-24T03:31:49;13.68;;;1.00;;
31386;SDS011;18017;50.124;8.688;2022-12-24T03:34:17;16.80;;;1.55;;
31386;SDS011;18017;50.124;8.688;2022-12-24T03:36:43;10.82;;;0.80;;
31386;SDS011;18017;50.124;8.688;2022-12-24T03:39:10;13.70;;;1.58;;
31386;SDS011;18017;50.124;8.688;2022-12-24T03:41:36;12.90;;;0.88;;
31386;SDS011;18017;50.124;8.688;2022-12-24T03:44:03;12.65;;;1.23;;
31386;SDS011;18017;50.124;8.688;2022-12-24T03:46:28;10.85;;;0.93;;
31386;SDS011;18017;50.124;8.688;2022-12-24T03:48:54;9.60;;;0.88;;
31386;SDS011;18017;50.124;8.688;2022-12-24T03:51:21;11.45;;;0.90;;
31386;SDS011;18017;50.124;8.688;2022-12-24T03:53:48;11.05;;;0.60;;
31386;SDS011;18017;50.124;8.688;2022-12-24T03:56:16;8.35;;;0.90;;
31386;SDS011;18017;50.124;8.688;2022-12-24T03:58:42;4.63;;;0.65;;
31386;SDS011;18017;50.124;8.688;2022-12-24T04:01:07;14.48;;;0.93;;
31386;SDS011;18017;50.124;8.688;2022-12-24T04:03:33;7.95;;;0.75;;
31386;SDS011;18017;50.124;8.688;2022-12-24T04:06:02;12.52;;;1.25;;
31386;SDS011;18017;50.124;8.688;2022-12-24T04:08:35;5.50;;;0.63;;
31386;SDS011;18017;50.124;8.688;2022-12-24T04:11:03;8.18;;;0.85;;
31386;SDS011;18017;50.124;8.688;2022-12-24T04:13:29;13.85;;;1.15;;
31386;SDS011;18017;50.124;8.688;2022-12-24T04:15:56;12.13;;;0.90;;
31386;SDS011;18017;50.124;8.688;2022-12-24T04:18:25;8.93;;;0.80;;
31386;SDS011;18017;50.124;8.688;2022-12-24T04:20:51;15.23;;;0.93;;
31386;SDS011;18017;50.124;8.688;2022-12-24T04:23:17;15.23;;;1.30;;
31386;SDS011;18017;50.124;8.688;2022-12-24T04:25:43;13.15;;;1.13;;
31386;SDS011;18017;50.124;8.688;2022-12-24T04:28:09;12.40;;;0.90;;
31386;SDS011;18017;50.124;8.688;2022-12-24T04:30:34;13.98;;;1.48;;
31386;SDS011;18017;50.124;8.688;2022-12-24T04:33:02;9.85;;;1.05;;
31386;SDS011;18017;50.124;8.688;2022-12-24T04:35:28;6.65;;;0.90;;
31386;SDS011;18017;50.124;8.688;2022-12-24T04:37:53;17.17;;;1.05;;
31386;SDS011;18017;50.124;8.688;2022-12-24T04:40:19;14.10;;;1.30;;
31386;SDS011;18017;50.124;8.688;2022-12-24T04:42:44;9.35;;;0.93;;
31386;SDS011;18017;50.124;8.688;2022-12-24T04:45:10;17.88;;;1.20;;
31386;SDS011;18017;50.124;8.688;2022-12-24T04:47:35;12.02;;;1.02;;
31386;SDS011;18017;50.124;8.688;2022-12-24T04:50:01;14.88;;;1.30;;
31386;SDS011;18017;50.124;8.688;2022-12-24T04:52:27;12.32;;;1.23;;
31386;SDS011;18017;50.124;8.688;2022-12-24T04:54:52;10.35;;;1.38;;
31386;SDS011;18017;50.124;8.688;2022-12-24T04:57:18;10.43;;;0.70;;
31386;SDS011;18017;50.124;8.688;2022-12-24T04:59:44;14.52;;;1.67;;
31386;SDS011;18017;50.124;8.688;2022-12-24T05:02:09;10.60;;;0.85;;
31386;SDS011;18017;50.124;8.688;2022-12-24T05:04:35;11.57;;;1.00;;
31386;SDS011;18017;50.124;8.688;2022-12-24T05:07:00;14.10;;;1.05;;
31386;SDS011;18017;50.124;8.688;2022-12-24T05:09:26;16.15;;;1.27;;
31386;SDS011;18017;50.124;8.688;2022-12-24T05:11:51;14.80;;;1.58;;
31386;SDS011;18017;50.124;8.688;2022-12-24T05:14:17;13.30;;;0.95;;
31386;SDS011;18017;50.124;8.688;2022-12-24T05:16:43;10.95;;;1.08;;
31386;SDS011;18017;50.124;8.688;2022-12-24T05:19:08;10.77;;;1.23;;
31386;SDS011;18017;50.124;8.688;2022-12-24T05:21:34;12.73;;;0.80;;
31386;SDS011;18017;50.124;8.688;2022-12-24T05:23:59;13.82;;;1.25;;
31386;SDS011;18017;50.124;8.688;2022-12-24T05:26:54;16.92;;;1.35;;
31386;SDS011;18017;50.124;8.688;2022-12-24T05:29:21;11.18;;;1.23;;
31386;SDS011;18017;50.124;8.688;2022-12-24T05:31:47;11.68;;;0.90;;
31386;SDS011;18017;50.124;8.688;2022-12-24T05:34:13;16.40;;;1.58;;
31386;SDS011;18017;50.124;8.688;2022-12-24T05:36:40;12.95;;;1.42;;
31386;SDS011;18017;50.124;8.688;2022-12-24T05:39:08;9.43;;;1.08;;
31386;SDS011;18017;50.124;8.688;2022-12-24T05:41:51;7.68;;;0.80;;
31386;SDS011;18017;50.124;8.688;2022-12-24T05:44:16;15.60;;;1.65;;
31386;SDS011;18017;50.124;8.688;2022-12-24T05:46:42;12.00;;;1.08;;
31386;SDS011;18017;50.124;8.688;2022-12-24T05:49:08;12.50;;;1.25;;
31386;SDS011;18017;50.124;8.688;2022-12-24T05:51:34;11.85;;;1.15;;
31386;SDS011;18017;50.124;8.688;2022-12-24T05:54:00;10.82;;;0.88;;
31386;SDS011;18017;50.124;8.688;2022-12-24T05:56:25;12.57;;;1.05;;
31386;SDS011;18017;50.124;8.688;2022-12-24T05:58:51;11.10;;;1.00;;
31386;SDS011;18017;50.124;8.688;2022-12-24T06:01:18;20.33;;;1.10;;
31386;SDS011;18017;50.124;8.688;2022-12-24T06:03:44;11.60;;;1.10;;
31386;SDS011;18017;50.124;8.688;2022-12-24T06:06:14;11.57;;;1.42;;
31386;SDS011;18017;50.124;8.688;2022-12-24T06:08:43;10.73;;;0.90;;
31386;SDS011;18017;50.124;8.688;2022-12-24T06:11:10;12.10;;;0.95;;
31386;SDS011;18017;50.124;8.688;2022-12-24T06:13:36;13.48;;;1.20;;
31386;SDS011;18017;50.124;8.688;2022-12-24T06:16:04;8.38;;;0.93;;
31386;SDS011;18017;50.124;8.688;2022-12-24T06:18:31;8.15;;;0.98;;
31386;SDS011;18017;50.124;8.688;2022-12-24T06:20:58;13.48;;;1.38;;
31386;SDS011;18017;50.124;8.688;2022-12-24T06:23:24;9.90;;;1.02;;
31386;SDS011;18017;50.124;8.688;2022-12-24T06:25:50;8.98;;;1.10;;
31386;SDS011;18017;50.124;8.688;2022-12-24T06:28:16;12.27;;;1.23;;
31386;SDS011;18017;50.124;8.688;2022-12-24T06:30:45;11.30;;;1.23;;
31386;SDS011;18017;50.124;8.688;2022-12-24T06:33:12;8.13;;;1.05;;
31386;SDS011;18017;50.124;8.688;2022-12-24T06:35:39;10.18;;;1.10;;
31386;SDS011;18017;50.124;8.688;2022-12-24T06:38:05;13.88;;;1.42;;
31386;SDS011;18017;50.124;8.688;2022-12-24T06:40:31;12.93;;;1.00;;
31386;SDS011;18017;50.124;8.688;2022-12-24T06:42:56;7.60;;;1.02;;
31386;SDS011;18017;50.124;8.688;2022-12-24T06:45:22;13.60;;;0.95;;
31386;SDS011;18017;50.124;8.688;2022-12-24T06:47:48;9.45;;;0.93;;
31386;SDS011;18017;50.124;8.688;2022-12-24T06:50:13;16.27;;;1.58;;
31386;SDS011;18017;50.124;8.688;2022-12-24T06:52:39;15.45;;;1.40;;
31386;SDS011;18017;50.124;8.688;2022-12-24T06:55:04;13.73;;;1.13;;
31386;SDS011;18017;50.124;8.688;2022-12-24T06:57:30;12.07;;;1.42;;
31386;SDS011;18017;50.124;8.688;2022-12-24T06:59:59;13.23;;;1.42;;
31386;SDS011;18017;50.124;8.688;2022-12-24T07:02:25;17.98;;;1.42;;
31386;SDS011;18017;50.124;8.688;2022-12-24T07:04:50;13.27;;;1.77;;
31386;SDS011;18017;50.124;8.688;2022-12-24T07:07:16;13.07;;;1.17;;
31386;SDS011;18017;50.124;8.688;2022-12-24T07:09:42;13.10;;;1.20;;
31386;SDS011;18017;50.124;8.688;2022-12-24T07:12:07;16.13;;;1.60;;
31386;SDS011;18017;50.124;8.688;2022-12-24T07:14:33;9.57;;;1.10;;
31386;SDS011;18017;50.124;8.688;2022-12-24T07:16:59;16.27;;;1.30;;
31386;SDS011;18017;50.124;8.688;2022-12-24T07:19:24;12.77;;;1.23;;
31386;SDS011;18017;50.124;8.688;2022-12-24T07:21:50;21.85;;;2.35;;
31386;SDS011;18017;50.124;8.688;2022-12-24T07:24:15;15.68;;;1.30;;
31386;SDS011;18017;50.124;8.688;2022-12-24T07:26:41;18.48;;;1.35;;
31386;SDS011;18017;50.124;8.688;2022-12-24T07:29:07;18.63;;;1.55;;
31386;SDS011;18017;50.124;8.688;2022-12-24T07:31:32;10.98;;;1.35;;
31386;SDS011;18017;50.124;8.688;2022-12-24T07:33:58;16.95;;;1.63;;
31386;SDS011;18017;50.124;8.688;2022-12-24T07:36:24;15.95;;;2.08;;
31386;SDS011;18017;50.124;8.688;2022-12-24T07:38:49;20.38;;;1.83;;
31386;SDS011;18017;50.124;8.688;2022-12-24T07:41:16;15.15;;;1.95;;
31386;SDS011;18017;50.124;8.688;2022-12-24T07:43:42;16.25;;;1.33;;
31386;SDS011;18017;50.124;8.688;2022-12-24T07:46:07;13.07;;;1.42;;
31386;SDS011;18017;50.124;8.688;2022-12-24T07:48:33;14.20;;;2.10;;
31386;SDS011;18017;50.124;8.688;2022-12-24T07:50:59;18.30;;;1.75;;
31386;SDS011;18017;50.124;8.688;2022-12-24T07:53:25;17.05;;;1.92;;
31386;SDS011;18017;50.124;8.688;2022-12-24T07:55:51;20.73;;;1.27;;
31386;SDS011;18017;50.124;8.688;2022-12-24T07:58:18;29.35;;;1.98;;
31386;SDS011;18017;50.124;8.688;2022-12-24T08:00:43;13.93;;;1.25;;
31386;SDS011;18017;50.124;8.688;2022-12-24T08:03:13;16.08;;;1.67;;
31386;SDS011;18017;50.124;8.688;2022-12-24T08:05:45;21.00;;;1.80;;
31386;SDS011;18017;50.124;8.688;2022-12-24T08:08:11;20.88;;;1.83;;
31386;SDS011;18017;50.124;8.688;2022-12-24T08:10:40;17.65;;;1.70;;
31386;SDS011;18017;50.124;8.688;2022-12-24T08:13:07;17.30;;;1.50;;
31386;SDS011;18017;50.124;8.688;2022-12-24T08:15:32;18.70;;;1.98;;
31386;SDS011;18017;50.124;8.688;2022-12-24T08:17:58;20.23;;;1.65;;
31386;SDS011;18017;50.124;8.688;2022-12-24T08:20:24;20.25;;;1.58;;
31386;SDS011;18017;50.124;8.688;2022-12-24T08:22:49;18.17;;;1.52;;
31386;SDS011;18017;50.124;8.688;2022-12-24T08:25:15;15.30;;;1.45;;
31386;SDS011;18017;50.124;8.688;2022-12-24T08:27:41;25.42;;;3.25;;
31386;SDS011;18017;50.124;8.688;2022-12-24T08:30:06;16.90;;;2.15;;
31386;SDS011;18017;50.124;8.688;2022-12-24T08:32:32;19.15;;;1.83;;
31386;SDS011;18017;50.124;8.688;2022-12-24T08:34:58;17.88;;;1.73;;
31386;SDS011;18017;50.124;8.688;2022-12-24T08:37:24;16.42;;;1.90;;
31386;SDS011;18017;50.124;8.688;2022-12-24T08:39:49;15.60;;;1.92;;
31386;SDS011;18017;50.124;8.688;2022-12-24T08:42:15;17.83;;;1.60;;
31386;SDS011;18017;50.124;8.688;2022-12-24T08:44:41;22.63;;;2.35;;
31386;SDS011;18017;50.124;8.688;2022-12-24T08:47:06;17.33;;;1.45;;
31386;SDS011;18017;50.124;8.688;2022-12-24T08:49:32;16.85;;;1.70;;
31386;SDS011;18017;50.124;8.688;2022-12-24T08:51:58;18.40;;;1.92;;
31386;SDS011;18017;50.124;8.688;2022-12-24T08:54:24;15.20;;;1.90;;
31386;SDS011;18017;50.124;8.688;2022-12-24T08:56:49;17.85;;;2.13;;
31386;SDS011;18017;50.124;8.688;2022-12-24T08:59:15;14.95;;;1.75;;
31386;SDS011;18017;50.124;8.688;2022-12-24T09:01:41;20.00;;;1.98;;
31386;SDS011;18017;50.124;8.688;2022-12-24T09:04:06;17.00;;;2.03;;
31386;SDS011;18017;50.124;8.688;2022-12-24T09:06:33;20.02;;;2.00;;
31386;SDS011;18017;50.124;8.688;2022-12-24T09:08:59;19.67;;;1.77;;
31386;SDS011;18017;50.124;8.688;2022-12-24T09:11:25;20.88;;;1.92;;
31386;SDS011;18017;50.124;8.688;2022-12-24T09:13:51;22.85;;;2.10;;
31386;SDS011;18017;50.124;8.688;2022-12-24T09:16:17;24.15;;;3.05;;
31386;SDS011;18017;50.124;8.688;2022-12-24T09:18:43;20.90;;;1.75;;
31386;SDS011;18017;50.124;8.688;2022-12-24T09:21:09;27.50;;;3.00;;
31386;SDS011;18017;50.124;8.688;2022-12-24T09:23:38;16.42;;;1.90;;
31386;SDS011;18017;50.124;8.688;2022-12-24T09:26:05;17.85;;;2.35;;
31386;SDS011;18017;50.124;8.688;2022-12-24T09:28:32;21.52;;;1.77;;
31386;SDS011;18017;50.124;8.688;2022-12-24T09:30:59;20.38;;;2.13;;
31386;SDS011;18017;50.124;8.688;2022-12-24T09:33:30;25.48;;;2.72;;
31386;SDS011;18017;50.124;8.688;2022-12-24T09:35:58;23.03;;;2.00;;
31386;SDS011;18017;50.124;8.688;2022-12-24T09:38:24;19.98;;;2.58;;
31386;SDS011;18017;50.124;8.688;2022-12-24T09:40:50;13.57;;;2.15;;
31386;SDS011;18017;50.124;8.688;2022-12-24T09:43:18;16.42;;;1.85;;
31386;SDS011;18017;50.124;8.688;2022-12-24T09:45:54;11.32;;;1.50;;
31386;SDS011;18017;50.124;8.688;2022-12-24T09:48:28;18.55;;;2.00;;
31386;SDS011;18017;50.124;8.688;2022-12-24T09:56:08;18.85;;;1.95;;
31386;SDS011;18017;50.124;8.688;2022-12-24T09:58:44;16.88;;;1.70;;
31386;SDS011;18017;50.124;8.688;2022-12-24T10:01:17;24.42;;;1.60;;
31386;SDS011;18017;50.124;8.688;2022-12-24T10:03:43;21.02;;;1.90;;
31386;SDS011;18017;50.124;8.688;2022-12-24T10:06:14;16.30;;;2.00;;
31386;SDS011;18017;50.124;8.688;2022-12-24T10:08:52;15.50;;;1.88;;
31386;SDS011;18017;50.124;8.688;2022-12-24T10:11:46;17.02;;;1.70;;
31386;SDS011;18017;50.124;8.688;2022-12-24T10:14:58;25.80;;;2.83;;
31386;SDS011;18017;50.124;8.688;2022-12-24T10:20:21;21.00;;;1.80;;
31386;SDS011;18017;50.124;8.688;2022-12-24T10:23:14;27.45;;;2.05;;
31386;SDS011;18017;50.124;8.688;2022-12-24T10:25:50;24.27;;;2.38;;
31386;SDS011;18017;50.124;8.688;2022-12-24T10:28:34;22.50;;;2.35;;
31386;SDS011;18017;50.124;8.688;2022-12-24T10:31:22;19.02;;;1.85;;
31386;SDS011;18017;50.124;8.688;2022-12-24T10:33:56;24.20;;;2.65;;
31386;SDS011;18017;50.124;8.688;2022-12-24T10:36:26;22.55;;;2.10;;
31386;SDS011;18017;50.124;8.688;2022-12-24T10:38:53;13.38;;;1.83;;
31386;SDS011;18017;50.124;8.688;2022-12-24T10:41:19;26.63;;;2.95;;
31386;SDS011;18017;50.124;8.688;2022-12-24T10:43:45;18.42;;;2.50;;
31386;SDS011;18017;50.124;8.688;2022-12-24T10:46:23;21.60;;;2.25;;
31386;SDS011;18017;50.124;8.688;2022-12-24T10:48:57;20.58;;;3.08;;
31386;SDS011;18017;50.124;8.688;2022-12-24T10:54:26;25.05;;;2.22;;
31386;SDS011;18017;50.124;8.688;2022-12-24T10:56:57;20.70;;;2.28;;
31386;SDS011;18017;50.124;8.688;2022-12-24T11:01:51;18.42;;;1.90;;
31386;SDS011;18017;50.124;8.688;2022-12-24T11:04:19;21.75;;;2.28;;
31386;SDS011;18017;50.124;8.688;2022-12-24T11:07:00;24.73;;;2.63;;
31386;SDS011;18017;50.124;8.688;2022-12-24T11:11:56;19.80;;;1.70;;
31386;SDS011;18017;50.124;8.688;2022-12-24T11:14:22;14.02;;;1.63;;
31386;SDS011;18017;50.124;8.688;2022-12-24T11:16:53;20.02;;;2.55;;
31386;SDS011;18017;50.124;8.688;2022-12-24T11:19:24;20.40;;;2.22;;
31386;SDS011;18017;50.124;8.688;2022-12-24T11:22:06;22.70;;;2.28;;
31386;SDS011;18017;50.124;8.688;2022-12-24T11:24:42;17.52;;;2.15;;
31386;SDS011;18017;50.124;8.688;2022-12-24T11:27:22;20.02;;;2.20;;
31386;SDS011;18017;50.124;8.688;2022-12-24T11:29:55;15.50;;;2.28;;
31386;SDS011;18017;50.124;8.688;2022-12-24T11:32:38;21.33;;;2.00;;
31386;SDS011;18017;50.124;8.688;2022-12-24T11:35:05;21.77;;;2.55;;
31386;SDS011;18017;50.124;8.688;2022-12-24T11:37:32;17.83;;;2.05;;
31386;SDS011;18017;50.124;8.688;2022-12-24T11:39:59;20.40;;;2.65;;
31386;SDS011;18017;50.124;8.688;2022-12-24T11:44:51;20.75;;;2.42;;
31386;SDS011;18017;50.124;8.688;2022-12-24T11:47:30;17.13;;;2.08;;
31386;SDS011;18017;50.124;8.688;2022-12-24T11:52:49;14.73;;;1.48;;
31386;SDS011;18017;50.124;8.688;2022-12-24T11:55:38;14.50;;;1.52;;
31386;SDS011;18017;50.124;8.688;2022-12-24T12:03:44;18.15;;;1.90;;
31386;SDS011;18017;50.124;8.688;2022-12-24T12:09:54;13.07;;;1.48;;
31386;SDS011;18017;50.124;8.688;2022-12-24T12:12:07;18.67;;;2.20;;
31386;SDS011;18017;50.124;8.688;2022-12-24T12:14:40;12.20;;;1.77;;
31386;SDS011;18017;50.124;8.688;2022-12-24T12:17:46;16.13;;;2.17;;
31386;SDS011;18017;50.124;8.688;2022-12-24T12:20:10;14.63;;;1.92;;
31386;SDS011;18017;50.124;8.688;2022-12-24T12:25:28;18.83;;;1.92;;
31386;SDS011;18017;50.124;8.688;2022-12-24T12:28:01;19.90;;;1.88;;
31386;SDS011;18017;50.124;8.688;2022-12-24T12:30:30;17.95;;;2.03;;
31386;SDS011;18017;50.124;8.688;2022-12-24T12:33:04;16.20;;;2.03;;
31386;SDS011;18017;50.124;8.688;2022-12-24T12:35:46;13.23;;;1.63;;
31386;SDS011;18017;50.124;8.688;2022-12-24T12:38:18;16.15;;;1.88;;
31386;SDS011;18017;50.124;8.688;2022-12-24T12:40:51;10.05;;;1.58;;
31386;SDS011;18017;50.124;8.688;2022-12-24T12:57:25;12.13;;;1.55;;
31386;SDS011;18017;50.124;8.688;2022-12-24T12:59:59;9.55;;;1.02;;
31386;SDS011;18017;50.124;8.688;2022-12-24T13:08:36;9.30;;;1.15;;
31386;SDS011;18017;50.124;8.688;2022-12-24T13:19:22;14.60;;;1.85;;
31386;SDS011;18017;50.124;8.688;2022-12-24T13:22:13;22.45;;;2.00;;
31386;SDS011;18017;50.124;8.688;2022-12-24T13:24:46;18.00;;;2.07;;
31386;SDS011;18017;50.124;8.688;2022-12-24T13:27:27;13.23;;;1.55;;
31386;SDS011;18017;50.124;8.688;2022-12-24T13:35:00;16.77;;;2.05;;
31386;SDS011;18017;50.124;8.688;2022-12-24T13:37:32;21.08;;;2.60;;
31386;SDS011;18017;50.124;8.688;2022-12-24T13:47:54;16.75;;;1.90;;
31386;SDS011;18017;50.124;8.688;2022-12-24T13:53:16;14.25;;;1.98;;
31386;SDS011;18017;50.124;8.688;2022-12-24T13:55:53;12.57;;;1.63;;
31386;SDS011;18017;50.124;8.688;2022-12-24T13:58:20;15.30;;;1.80;;
31386;SDS011;18017;50.124;8.688;2022-12-24T14:01:09;14.95;;;1.40;;
31386;SDS011;18017;50.124;8.688;2022-12-24T14:06:09;16.35;;;1.90;;
31386;SDS011;18017;50.124;8.688;2022-12-24T14:08:39;14.88;;;1.83;;
31386;SDS011;18017;50.124;8.688;2022-12-24T14:11:15;23.50;;;2.03;;
31386;SDS011;18017;50.124;8.688;2022-12-24T14:18:49;13.57;;;1.80;;
31386;SDS011;18017;50.124;8.688;2022-12-24T14:21:36;20.77;;;2.55;;
31386;SDS011;18017;50.124;8.688;2022-12-24T14:24:15;12.70;;;1.80;;
31386;SDS011;18017;50.124;8.688;2022-12-24T14:26:44;19.60;;;1.88;;
31386;SDS011;18017;50.124;8.688;2022-12-24T14:32:01;16.45;;;1.75;;
31386;SDS011;18017;50.124;8.688;2022-12-24T14:34:38;19.92;;;1.95;;
31386;SDS011;18017;50.124;8.688;2022-12-24T14:37:03;18.85;;;1.70;;
31386;SDS011;18017;50.124;8.688;2022-12-24T14:39:33;12.77;;;1.90;;
31386;SDS011;18017;50.124;8.688;2022-12-24T14:44:55;20.40;;;1.90;;
31386;SDS011;18017;50.124;8.688;2022-12-24T14:55:44;17.98;;;1.75;;
31386;SDS011;18017;50.124;8.688;2022-12-24T14:58:25;13.90;;;1.42;;
31386;SDS011;18017;50.124;8.688;2022-12-24T15:00:52;19.15;;;2.15;;
31386;SDS011;18017;50.124;8.688;2022-12-24T15:03:21;14.18;;;1.98;;
31386;SDS011;18017;50.124;8.688;2022-12-24T15:05:50;26.08;;;2.10;;
31386;SDS011;18017;50.124;8.688;2022-12-24T15:08:19;20.17;;;2.08;;
31386;SDS011;18017;50.124;8.688;2022-12-24T15:10:50;24.00;;;2.42;;
31386;SDS011;18017;50.124;8.688;2022-12-24T15:15:50;14.05;;;1.80;;
31386;SDS011;18017;50.124;8.688;2022-12-24T15:18:19;27.77;;;2.83;;
31386;SDS011;18017;50.124;8.688;2022-12-24T15:20:48;21.50;;;2.08;;
31386;SDS011;18017;50.124;8.688;2022-12-24T15:23:17;20.45;;;2.03;;
31386;SDS011;18017;50.124;8.688;2022-12-24T15:26:07;23.10;;;2.13;;
31386;SDS011;18017;50.124;8.688;2022-12-24T15:28:47;30.23;;;2.80;;
31386;SDS011;18017;50.124;8.688;2022-12-24T15:31:14;17.23;;;1.90;;
31386;SDS011;18017;50.124;8.688;2022-12-24T15:33:48;10.25;;;1.83;;
31386;SDS011;18017;50.124;8.688;2022-12-24T15:36:49;21.48;;;2.10;;
31386;SDS011;18017;50.124;8.688;2022-12-24T15:39:12;19.40;;;2.20;;
31386;SDS011;18017;50.124;8.688;2022-12-24T15:41:41;21.90;;;2.33;;
31386;SDS011;18017;50.124;8.688;2022-12-24T15:44:34;14.18;;;1.80;;
31386;SDS011;18017;50.124;8.688;2022-12-24T15:47:02;20.20;;;1.60;;
31386;SDS011;18017;50.124;8.688;2022-12-24T15:49:31;32.95;;;2.53;;
31386;SDS011;18017;50.124;8.688;2022-12-24T15:52:05;21.73;;;2.08;;
31386;SDS011;18017;50.124;8.688;2022-12-24T15:54:33;15.20;;;1.63;;
31386;SDS011;18017;50.124;8.688;2022-12-24T15:56:59;13.80;;;1.52;;
31386;SDS011;18017;50.124;8.688;2022-12-24T15:59:50;13.48;;;1.90;;
31386;SDS011;18017;50.124;8.688;2022-12-24T16:02:35;22.02;;;1.70;;
31386;SDS011;18017;50.124;8.688;2022-12-24T16:07:59;14.98;;;1.55;;
31386;SDS011;18017;50.124;8.688;2022-12-24T16:10:37;17.88;;;2.05;;
31386;SDS011;18017;50.124;8.688;2022-12-24T16:13:12;18.02;;;3.25;;
31386;SDS011;18017;50.124;8.688;2022-12-24T16:15:45;15.80;;;1.98;;
31386;SDS011;18017;50.124;8.688;2022-12-24T16:18:23;16.58;;;1.67;;
31386;SDS011;18017;50.124;8.688;2022-12-24T16:20:54;19.05;;;1.83;;
31386;SDS011;18017;50.124;8.688;2022-12-24T16:23:25;14.43;;;1.30;;
31386;SDS011;18017;50.124;8.688;2022-12-24T16:25:53;17.25;;;2.33;;
31386;SDS011;18017;50.124;8.688;2022-12-24T16:28:19;17.33;;;1.67;;
31386;SDS011;18017;50.124;8.688;2022-12-24T16:30:46;16.77;;;1.73;;
31386;SDS011;18017;50.124;8.688;2022-12-24T16:33:15;16.85;;;2.33;;
31386;SDS011;18017;50.124;8.688;2022-12-24T16:35:43;16.60;;;1.90;;
31386;SDS011;18017;50.124;8.688;2022-12-24T16:38:10;19.13;;;2.17;;
31386;SDS011;18017;50.124;8.688;2022-12-24T16:40:37;16.00;;;1.90;;
31386;SDS011;18017;50.124;8.688;2022-12-24T16:43:04;18.83;;;1.88;;
31386;SDS011;18017;50.124;8.688;2022-12-24T16:45:48;20.92;;;2.08;;
31386;SDS011;18017;50.124;8.688;2022-12-24T16:48:21;15.60;;;1.73;;
31386;SDS011;18017;50.124;8.688;2022-12-24T16:50:48;18.50;;;1.85;;
31386;SDS011;18017;50.124;8.688;2022-12-24T16:53:15;11.77;;;1.77;;
31386;SDS011;18017;50.124;8.688;2022-12-24T16:55:42;14.95;;;1.70;;
31386;SDS011;18017;50.124;8.688;2022-12-24T16:58:10;14.27;;;1.98;;
31386;SDS011;18017;50.124;8.688;2022-12-24T17:00:37;10.57;;;1.80;;